Time;durP1;ratioP1;P1;durP2;ratioP2;P2;SDS_P1;SDS_P2;PMS_P1;PMS_P2;Temp;Humidity;BMP_temperature;BMP_pressure;BME280_temperature;BME280_humidity;BME280_pressure;Samples;Min_cycle;Max_cycle;Signal;HPM_P1;HPM_P2
2022/08/20 00:00:38;;;;;;;3.47;1.30;;;18.50;99.90;;;;;;5068211;28;20079;-74
2022/08/20 00:03:19;;;;;;;5.63;1.30;;;18.40;99.90;;;;;;5072593;28;20040;-74
2022/08/20 00:05:48;;;;;;;3.88;1.38;;;18.40;99.90;;;;;;5071716;28;20035;-74
2022/08/20 00:08:14;;;;;;;5.60;1.60;;;18.30;99.90;;;;;;5066018;28;20520;-74
2022/08/20 00:10:44;;;;;;;2.53;1.30;;;18.30;99.90;;;;;;5069692;28;20444;-73
2022/08/20 00:13:13;;;;;;;2.58;1.23;;;18.30;99.90;;;;;;5071290;28;20356;-74
2022/08/20 00:15:39;;;;;;;4.18;0.77;;;18.30;99.90;;;;;;5064828;28;20082;-73
2022/08/20 00:18:06;;;;;;;2.63;1.33;;;18.30;99.90;;;;;;5070793;28;20425;-74
2022/08/20 00:20:38;;;;;;;3.03;1.30;;;18.20;99.90;;;;;;5067226;28;20024;-73
2022/08/20 00:23:05;;;;;;;3.75;1.63;;;18.50;99.90;;;;;;5058541;28;20119;-74
2022/08/20 00:25:31;;;;;;;4.30;1.35;;;18.40;99.90;;;;;;5069452;28;20474;-74
2022/08/20 00:27:57;;;;;;;6.03;1.42;;;18.50;99.90;;;;;;5067934;28;20028;-74
2022/08/20 00:30:25;;;;;;;4.22;1.15;;;18.40;99.90;;;;;;5069975;28;20035;-74
2022/08/20 00:32:55;;;;;;;4.05;1.70;;;18.40;99.90;;;;;;5069086;28;20078;-73
2022/08/20 00:35:23;;;;;;;2.92;1.30;;;18.40;99.90;;;;;;5059264;28;20029;-74
2022/08/20 00:37:49;;;;;;;4.35;1.65;;;18.30;99.90;;;;;;5068765;28;20024;-73
2022/08/20 00:40:20;;;;;;;5.25;1.83;;;18.20;99.90;;;;;;5070982;28;20028;-74
2022/08/20 00:42:50;;;;;;;3.83;1.20;;;18.20;99.90;;;;;;5063445;28;20151;-74
2022/08/20 00:45:17;;;;;;;6.85;2.55;;;18.30;99.90;;;;;;5066212;28;20531;-73
2022/08/20 00:47:43;;;;;;;4.60;1.50;;;18.30;99.90;;;;;;5064540;28;20114;-73
2022/08/20 00:50:11;;;;;;;4.22;1.27;;;18.40;99.90;;;;;;5063613;28;20040;-74
2022/08/20 00:52:40;;;;;;;6.30;1.20;;;18.40;99.90;;;;;;5063983;28;20068;-74
2022/08/20 00:55:08;;;;;;;4.55;1.40;;;18.40;99.90;;;;;;5065005;28;20028;-73
2022/08/20 00:57:39;;;;;;;7.93;1.42;;;18.50;99.90;;;;;;5064256;28;20037;-73
2022/08/20 01:00:20;;;;;;;3.97;1.42;;;18.50;99.90;;;;;;5069209;28;20036;-74
2022/08/20 01:02:47;;;;;;;3.72;1.35;;;18.30;99.90;;;;;;5069229;28;20047;-74
2022/08/20 01:05:13;;;;;;;3.22;1.33;;;18.20;99.90;;;;;;5069645;28;20121;-74
2022/08/20 01:07:41;;;;;;;4.35;1.50;;;18.10;99.90;;;;;;5068704;28;20032;-74
2022/08/20 01:10:17;;;;;;;3.17;1.20;;;18.10;99.90;;;;;;5071097;28;20036;-73
2022/08/20 01:12:46;;;;;;;3.15;1.25;;;18.20;99.90;;;;;;5068592;28;20029;-74
2022/08/20 01:15:17;;;;;;;3.42;1.30;;;18.30;99.90;;;;;;5071531;28;20056;-73
2022/08/20 01:17:46;;;;;;;5.28;1.55;;;18.30;99.90;;;;;;5069803;28;20393;-73
2022/08/20 01:20:31;;;;;;;3.58;1.23;;;18.30;99.90;;;;;;5065733;28;20119;-74
2022/08/20 01:25:53;;;;;;;4.03;1.38;;;18.50;99.90;;;;;;5063942;28;20174;-73
2022/08/20 01:28:25;;;;;;;4.30;1.30;;;18.40;99.90;;;;;;5059041;28;20036;-74
2022/08/20 01:30:52;;;;;;;5.13;1.50;;;18.30;99.90;;;;;;5055946;28;20036;-74
2022/08/20 01:33:19;;;;;;;4.57;1.95;;;18.30;99.90;;;;;;5065968;28;20028;-73
2022/08/20 01:35:45;;;;;;;6.40;1.33;;;18.20;99.90;;;;;;5068560;28;20036;-73
2022/08/20 01:38:11;;;;;;;4.95;1.48;;;18.20;99.90;;;;;;5064265;28;20854;-74
2022/08/20 01:40:54;;;;;;;3.72;1.20;;;18.10;99.90;;;;;;5055534;28;20412;-74
2022/08/20 01:43:20;;;;;;;5.85;1.23;;;18.30;99.90;;;;;;5050261;28;20044;-74
2022/08/20 01:45:45;;;;;;;3.22;1.30;;;18.20;99.90;;;;;;5061619;28;20028;-74
2022/08/20 01:48:14;;;;;;;2.20;1.00;;;18.20;99.90;;;;;;5068074;28;20040;-74
2022/08/20 01:50:43;;;;;;;5.50;1.15;;;18.10;99.90;;;;;;5066344;28;20032;-74
2022/08/20 01:53:20;;;;;;;3.30;1.50;;;18.10;99.90;;;;;;5061382;28;20410;-74
2022/08/20 01:55:46;;;;;;;5.45;1.17;;;18.20;99.90;;;;;;5063718;28;20051;-74
2022/08/20 01:58:12;;;;;;;7.38;1.38;;;18.20;99.90;;;;;;5050665;28;20045;-74
2022/08/20 02:00:38;;;;;;;6.10;1.08;;;18.20;99.90;;;;;;5062818;28;20078;-74
2022/08/20 02:03:03;;;;;;;5.55;1.55;;;18.20;99.90;;;;;;5062960;28;20037;-74
2022/08/20 02:05:32;;;;;;;10.35;1.50;;;18.30;99.90;;;;;;5058271;28;20064;-74
2022/08/20 02:07:58;;;;;;;3.72;1.40;;;18.30;99.90;;;;;;5067009;28;20089;-74
2022/08/20 02:10:24;;;;;;;4.03;1.58;;;18.30;99.90;;;;;;5066968;28;20124;-74
2022/08/20 02:12:49;;;;;;;3.65;1.42;;;18.30;99.90;;;;;;5068986;28;20529;-74
2022/08/20 02:15:15;;;;;;;2.65;1.20;;;18.20;99.90;;;;;;5059022;28;20124;-74
2022/08/20 02:17:41;;;;;;;5.35;1.35;;;18.30;99.90;;;;;;5050395;28;20068;-74
2022/08/20 02:20:27;;;;;;;2.47;1.15;;;18.30;99.90;;;;;;5066263;28;20032;-73
2022/08/20 02:22:57;;;;;;;3.05;1.42;;;18.30;99.90;;;;;;5052034;28;20036;-74
2022/08/20 02:25:26;;;;;;;5.50;1.75;;;18.30;99.90;;;;;;5053892;28;20117;-73
2022/08/20 02:27:53;;;;;;;8.48;1.48;;;18.20;99.90;;;;;;5062509;28;20055;-74
2022/08/20 02:30:29;;;;;;;4.55;1.63;;;18.10;99.90;;;;;;5058132;28;20538;-73
2022/08/20 02:32:56;;;;;;;4.68;1.30;;;18.10;99.90;;;;;;5067197;28;20086;-74
2022/08/20 02:35:23;;;;;;;2.70;1.15;;;18.30;99.90;;;;;;5063148;28;20032;-74
2022/08/20 02:37:50;;;;;;;3.00;1.42;;;18.40;99.90;;;;;;5072417;28;20036;-74
2022/08/20 02:40:18;;;;;;;5.63;2.15;;;18.30;99.90;;;;;;5063324;28;20108;-74
2022/08/20 02:42:44;;;;;;;6.30;1.80;;;18.30;99.90;;;;;;5068658;28;20117;-74
2022/08/20 02:45:13;;;;;;;3.92;1.75;;;18.30;99.90;;;;;;5067553;28;20060;-74
2022/08/20 02:47:40;;;;;;;4.05;1.40;;;18.30;99.90;;;;;;5053735;28;20032;-73
2022/08/20 02:50:09;;;;;;;3.35;1.30;;;18.20;99.90;;;;;;5057722;28;20044;-74
2022/08/20 02:52:35;;;;;;;6.25;1.70;;;18.20;99.90;;;;;;5059051;28;20185;-74
2022/08/20 02:55:01;;;;;;;3.30;1.60;;;18.20;99.90;;;;;;5062583;28;20537;-73
2022/08/20 02:57:27;;;;;;;6.50;1.70;;;18.20;99.90;;;;;;5068614;28;20558;-74
2022/08/20 02:59:53;;;;;;;7.75;1.52;;;18.20;99.90;;;;;;5065983;28;20104;-74
2022/08/20 03:02:19;;;;;;;3.70;1.40;;;18.20;99.90;;;;;;5066109;28;20029;-72
2022/08/20 03:04:44;;;;;;;5.13;1.42;;;18.20;99.90;;;;;;5054636;28;20608;-73
2022/08/20 03:07:10;;;;;;;3.78;1.25;;;18.30;99.90;;;;;;5066976;28;20033;-72
2022/08/20 03:09:37;;;;;;;5.22;1.85;;;18.40;99.90;;;;;;5066178;28;20143;-72
2022/08/20 03:12:03;;;;;;;6.35;1.40;;;18.40;99.90;;;;;;5067950;28;20032;-72
2022/08/20 03:14:29;;;;;;;4.95;1.20;;;18.30;99.90;;;;;;5067221;28;20702;-72
2022/08/20 03:16:55;;;;;;;2.97;1.50;;;18.40;99.90;;;;;;5066409;28;20029;-73
2022/08/20 03:19:21;;;;;;;3.10;1.20;;;18.40;99.90;;;;;;5052872;28;20467;-72
2022/08/20 03:21:48;;;;;;;6.47;1.50;;;18.40;99.90;;;;;;5064857;28;20141;-72
2022/08/20 03:24:14;;;;;;;5.30;1.85;;;18.40;99.90;;;;;;5056925;28;20082;-72
2022/08/20 03:26:39;;;;;;;4.18;1.50;;;18.40;99.90;;;;;;5062321;28;20040;-73
2022/08/20 03:29:05;;;;;;;3.17;1.17;;;18.30;99.90;;;;;;5066225;28;20922;-72
2022/08/20 03:31:31;;;;;;;2.97;1.20;;;18.20;99.90;;;;;;5063339;28;20032;-72
2022/08/20 03:33:57;;;;;;;3.70;1.48;;;18.20;99.90;;;;;;5056584;28;20024;-72
2022/08/20 03:36:24;;;;;;;2.58;1.52;;;18.40;99.90;;;;;;5067961;28;20110;-73
2022/08/20 03:38:49;;;;;;;4.72;1.50;;;18.40;99.90;;;;;;5063368;28;20040;-72
2022/08/20 03:41:15;;;;;;;6.45;1.42;;;18.60;99.90;;;;;;5059743;28;20047;-73
2022/08/20 03:43:41;;;;;;;2.38;1.15;;;18.60;99.90;;;;;;5054824;28;20029;-72
2022/08/20 03:46:07;;;;;;;3.42;1.30;;;18.60;99.90;;;;;;5067950;28;20550;-72
2022/08/20 03:48:33;;;;;;;3.97;1.70;;;18.60;99.90;;;;;;5060348;28;20055;-73
2022/08/20 03:50:59;;;;;;;5.97;1.60;;;18.50;99.90;;;;;;5066783;28;20758;-72
2022/08/20 03:53:30;;;;;;;6.70;1.88;;;18.60;99.90;;;;;;5055020;28;20191;-72
2022/08/20 03:55:59;;;;;;;2.88;1.10;;;18.40;99.90;;;;;;5067786;28;20045;-72
2022/08/20 03:58:27;;;;;;;4.40;1.40;;;18.40;99.90;;;;;;5056486;28;20025;-72
2022/08/20 04:00:53;;;;;;;2.55;1.30;;;18.30;99.90;;;;;;5064427;28;20032;-72
2022/08/20 04:03:19;;;;;;;6.95;1.30;;;18.30;99.90;;;;;;5053602;28;20033;-72
2022/08/20 04:05:45;;;;;;;4.18;1.27;;;18.30;99.90;;;;;;5054462;28;20036;-72
2022/08/20 04:08:17;;;;;;;3.13;1.10;;;18.20;99.90;;;;;;5054751;28;20025;-72
2022/08/20 04:10:45;;;;;;;4.57;2.00;;;18.10;99.90;;;;;;5051447;28;20616;-72
2022/08/20 04:13:12;;;;;;;7.45;1.55;;;18.10;99.90;;;;;;5062508;28;20027;-75
2022/08/20 04:15:38;;;;;;;4.32;1.48;;;18.20;99.90;;;;;;5063994;28;20033;-72
2022/08/20 04:18:06;;;;;;;3.20;1.30;;;18.10;99.90;;;;;;5037893;28;20044;-75
2022/08/20 04:20:33;;;;;;;6.05;1.17;;;18.10;99.90;;;;;;5060258;28;20024;-72
2022/08/20 04:22:59;;;;;;;10.23;1.73;;;18.20;99.90;;;;;;5047524;28;20090;-73
2022/08/20 04:25:30;;;;;;;2.17;0.82;;;18.10;99.90;;;;;;5048284;28;20115;-73
2022/08/20 04:27:57;;;;;;;3.58;1.58;;;18.20;99.90;;;;;;5056784;28;20024;-72
2022/08/20 04:30:23;;;;;;;3.70;1.20;;;18.30;99.90;;;;;;5049914;28;20079;-73
2022/08/20 04:32:48;;;;;;;3.58;1.05;;;18.30;99.90;;;;;;5056781;28;20090;-72
2022/08/20 04:35:16;;;;;;;3.85;1.40;;;18.20;99.90;;;;;;5046701;28;20051;-72
2022/08/20 04:37:44;;;;;;;5.10;1.60;;;18.30;99.90;;;;;;5055462;28;20033;-74
2022/08/20 04:42:59;;;;;;;11.23;1.45;;;18.30;99.90;;;;;;5047998;28;20051;-72
2022/08/20 04:45:25;;;;;;;3.25;1.33;;;18.30;99.90;;;;;;5047979;28;20099;-73
2022/08/20 04:47:51;;;;;;;2.42;1.00;;;18.30;99.90;;;;;;5061955;28;20033;-72
2022/08/20 04:50:18;;;;;;;2.72;1.10;;;18.20;99.90;;;;;;5064153;28;20040;-72
2022/08/20 04:52:44;;;;;;;4.18;1.40;;;18.20;99.90;;;;;;5056637;28;20043;-74
2022/08/20 04:55:10;;;;;;;1.90;0.90;;;18.40;99.90;;;;;;5061874;28;20040;-75
2022/08/20 04:57:39;;;;;;;2.72;1.52;;;18.40;99.90;;;;;;5056136;28;20106;-74
2022/08/20 05:00:09;;;;;;;3.20;0.85;;;18.30;99.90;;;;;;5066884;28;20021;-74
2022/08/20 05:02:36;;;;;;;3.78;0.90;;;18.40;99.90;;;;;;5055274;28;20056;-75
2022/08/20 05:05:03;;;;;;;2.95;0.88;;;18.50;99.90;;;;;;5059797;28;20642;-74
2022/08/20 05:07:29;;;;;;;2.50;0.80;;;18.40;99.90;;;;;;5050272;28;20029;-74
2022/08/20 05:09:54;;;;;;;2.35;0.90;;;18.40;99.90;;;;;;5062611;28;20094;-75
2022/08/20 05:12:20;;;;;;;3.30;1.33;;;18.30;99.90;;;;;;5047536;28;20445;-74
2022/08/20 05:14:46;;;;;;;3.70;0.90;;;18.30;99.90;;;;;;5061975;28;20028;-75
2022/08/20 05:17:13;;;;;;;2.53;1.10;;;18.40;99.90;;;;;;5053689;28;20068;-75
2022/08/20 05:19:39;;;;;;;5.22;1.00;;;18.70;99.90;;;;;;5054481;28;20087;-75
2022/08/20 05:22:04;;;;;;;1.73;0.75;;;18.80;99.90;;;;;;5049221;28;20490;-75
2022/08/20 05:24:31;;;;;;;3.28;1.40;;;18.90;99.90;;;;;;5055507;28;20461;-74
2022/08/20 05:26:58;;;;;;;5.55;1.25;;;19.00;99.90;;;;;;5066891;28;20108;-74
2022/08/20 05:29:24;;;;;;;4.57;1.45;;;19.00;99.90;;;;;;5065221;28;20029;-75
2022/08/20 05:31:50;;;;;;;2.03;0.95;;;19.00;99.90;;;;;;5063718;28;20474;-74
2022/08/20 05:34:15;;;;;;;3.88;1.38;;;19.10;99.90;;;;;;5050187;28;20040;-75
2022/08/20 05:36:48;;;;;;;2.08;1.00;;;19.10;99.90;;;;;;5066236;28;20036;-74
2022/08/20 05:39:14;;;;;;;2.60;0.98;;;19.10;99.90;;;;;;5050779;28;20029;-74
2022/08/20 05:41:40;;;;;;;3.13;1.08;;;19.00;99.90;;;;;;5063422;28;20033;-74
2022/08/20 05:44:12;;;;;;;4.45;1.15;;;19.10;99.90;;;;;;5047605;28;20036;-74
2022/08/20 05:46:39;;;;;;;6.00;1.67;;;19.10;99.90;;;;;;5066860;28;20536;-72
2022/08/20 05:49:06;;;;;;;1.27;0.73;;;19.10;99.90;;;;;;5063949;28;20037;-73
2022/08/20 05:51:31;;;;;;;3.60;1.25;;;19.10;99.90;;;;;;5066662;28;20107;-72
2022/08/20 05:53:57;;;;;;;5.57;0.85;;;19.00;99.90;;;;;;5069131;28;20064;-71
2022/08/20 05:56:23;;;;;;;2.58;1.23;;;19.00;99.90;;;;;;5064536;28;20094;-70
2022/08/20 05:58:49;;;;;;;5.47;1.10;;;19.10;99.90;;;;;;5064478;28;20021;-70
2022/08/20 06:01:14;;;;;;;11.82;1.50;;;19.20;99.90;;;;;;5066140;28;20115;-70
2022/08/20 06:06:24;;;;;;;2.30;0.88;;;19.10;99.90;;;;;;5052723;28;20071;-71
2022/08/20 06:08:50;;;;;;;2.70;1.10;;;19.20;99.90;;;;;;5053114;28;20036;-71
2022/08/20 06:11:15;;;;;;;6.10;1.23;;;19.20;99.90;;;;;;5064766;28;20057;-72
2022/08/20 06:13:41;;;;;;;4.03;1.00;;;19.20;99.90;;;;;;5058821;28;20045;-71
2022/08/20 06:16:07;;;;;;;4.25;1.05;;;19.20;99.90;;;;;;5051190;28;20032;-72
2022/08/20 06:18:32;;;;;;;3.75;1.20;;;19.20;99.90;;;;;;5046082;28;20510;-72
2022/08/20 06:20:58;;;;;;;6.47;1.00;;;19.30;99.90;;;;;;5061543;28;20041;-72
2022/08/20 06:23:24;;;;;;;2.42;1.10;;;19.40;99.90;;;;;;5063486;28;20040;-71
2022/08/20 06:25:51;;;;;;;2.95;0.90;;;19.50;99.90;;;;;;5061138;28;20432;-72
2022/08/20 06:28:17;;;;;;;6.45;1.40;;;19.50;99.90;;;;;;5053644;28;20069;-71
2022/08/20 06:30:43;;;;;;;6.50;1.10;;;19.60;99.90;;;;;;5049763;28;20060;-71
2022/08/20 06:33:09;;;;;;;3.28;0.80;;;19.60;99.90;;;;;;5055418;28;20067;-72
2022/08/20 06:35:36;;;;;;;7.50;1.45;;;19.60;99.90;;;;;;5055335;28;20400;-71
2022/08/20 06:38:04;;;;;;;5.55;1.15;;;19.60;99.90;;;;;;5065878;28;20044;-71
2022/08/20 06:40:30;;;;;;;2.53;0.90;;;19.60;99.90;;;;;;5050166;28;20040;-71
2022/08/20 06:42:56;;;;;;;4.90;1.20;;;19.70;99.90;;;;;;5049013;28;20032;-72
2022/08/20 06:45:25;;;;;;;3.17;1.20;;;19.70;99.90;;;;;;5064767;28;20092;-71
2022/08/20 06:47:54;;;;;;;3.28;1.25;;;19.80;99.90;;;;;;5062187;28;20488;-71
2022/08/20 06:50:23;;;;;;;2.28;1.23;;;19.90;99.90;;;;;;5064595;28;20044;-72
2022/08/20 06:52:49;;;;;;;5.05;1.20;;;20.00;99.90;;;;;;5048434;28;20464;-71
2022/08/20 06:55:16;;;;;;;5.85;1.10;;;20.10;99.90;;;;;;5056717;28;20139;-71
2022/08/20 06:57:42;;;;;;;3.28;0.90;;;20.20;99.90;;;;;;5065193;28;20053;-72
2022/08/20 07:00:15;;;;;;;3.85;1.00;;;20.20;99.90;;;;;;5065816;28;20040;-71
2022/08/20 07:02:40;;;;;;;4.93;1.10;;;20.30;99.90;;;;;;5065984;28;20024;-71
2022/08/20 07:05:07;;;;;;;4.00;1.20;;;20.40;99.90;;;;;;5064711;28;20918;-71
2022/08/20 07:07:33;;;;;;;1.30;0.70;;;20.70;99.90;;;;;;5066729;28;20115;-71
2022/08/20 07:10:10;;;;;;;7.07;1.35;;;20.60;99.90;;;;;;5066644;28;20040;-71
2022/08/20 07:12:36;;;;;;;5.75;1.58;;;20.50;99.90;;;;;;5065509;28;20043;-71
2022/08/20 07:15:07;;;;;;;2.83;1.08;;;20.50;99.90;;;;;;5055057;28;20112;-72
2022/08/20 07:17:33;;;;;;;2.03;0.93;;;20.40;99.90;;;;;;5045712;28;20433;-72
2022/08/20 07:20:06;;;;;;;2.28;0.90;;;20.60;99.90;;;;;;5058831;28;20032;-72
2022/08/20 07:22:35;;;;;;;5.60;1.13;;;21.30;99.90;;;;;;5064265;28;20064;-73
2022/08/20 07:25:05;;;;;;;2.60;1.02;;;21.40;99.90;;;;;;5051509;28;20024;-72
2022/08/20 07:27:31;;;;;;;2.65;1.13;;;22.10;99.90;;;;;;5054071;28;20036;-72
2022/08/20 07:32:42;;;;;;;2.45;1.13;;;27.00;96.00;;;;;;5046015;28;20434;-71
2022/08/20 07:35:11;;;;;;;3.65;1.10;;;25.80;96.00;;;;;;5057663;28;20032;-72
2022/08/20 07:37:42;;;;;;;7.22;1.50;;;25.30;95.20;;;;;;5050858;28;20115;-73
2022/08/20 07:40:12;;;;;;;4.30;0.57;;;25.80;94.60;;;;;;5057896;28;20039;-73
2022/08/20 07:42:39;;;;;;;3.63;1.20;;;26.10;94.80;;;;;;5050456;28;20032;-73
2022/08/20 07:45:10;;;;;;;2.35;0.90;;;24.40;97.40;;;;;;5049583;28;20045;-73
2022/08/20 07:47:40;;;;;;;1.38;0.73;;;23.20;98.60;;;;;;5052202;28;20055;-73
2022/08/20 07:50:09;;;;;;;4.07;0.93;;;22.60;99.80;;;;;;5050726;28;20129;-73
2022/08/20 07:52:34;;;;;;;3.45;0.85;;;22.40;99.90;;;;;;5048343;28;20092;-73
2022/08/20 07:55:10;;;;;;;3.78;1.15;;;22.50;99.90;;;;;;5048903;28;20029;-73
2022/08/20 07:57:37;;;;;;;3.17;1.30;;;22.60;99.90;;;;;;5054514;28;20135;-73
2022/08/20 08:00:07;;;;;;;2.40;0.90;;;22.30;99.90;;;;;;5044821;28;20036;-73
2022/08/20 08:02:33;;;;;;;3.88;1.00;;;22.30;99.90;;;;;;5059030;28;20082;-73
2022/08/20 08:05:00;;;;;;;2.55;0.80;;;22.40;99.90;;;;;;5064342;28;20066;-73
2022/08/20 08:07:27;;;;;;;5.05;1.02;;;22.40;99.90;;;;;;5063130;28;20367;-73
2022/08/20 08:09:54;;;;;;;5.10;1.00;;;22.20;99.90;;;;;;5065219;28;20165;-73
2022/08/20 08:12:21;;;;;;;2.72;0.98;;;22.20;99.90;;;;;;5063226;28;20036;-73
2022/08/20 08:14:49;;;;;;;3.20;0.77;;;22.30;99.90;;;;;;5058825;28;20044;-73
2022/08/20 08:17:17;;;;;;;2.88;0.90;;;22.40;99.90;;;;;;5061891;28;20040;-73
2022/08/20 08:19:47;;;;;;;0.90;0.52;;;22.60;99.90;;;;;;5064616;28;20029;-73
2022/08/20 08:22:15;;;;;;;2.58;1.02;;;22.70;99.90;;;;;;5064418;28;20036;-73
2022/08/20 08:24:42;;;;;;;1.80;0.77;;;22.80;99.70;;;;;;5065423;28;20040;-74
2022/08/20 08:27:09;;;;;;;2.15;0.70;;;23.00;98.80;;;;;;5062049;28;20122;-73
2022/08/20 08:29:35;;;;;;;1.15;0.52;;;23.00;99.20;;;;;;5055668;28;20033;-75
2022/08/20 08:32:03;;;;;;;1.58;0.70;;;23.20;99.80;;;;;;5055492;28;20032;-72
2022/08/20 08:34:31;;;;;;;2.83;0.90;;;23.30;98.40;;;;;;5055400;28;20033;-73
2022/08/20 08:36:57;;;;;;;4.00;1.10;;;23.40;99.70;;;;;;5055033;28;20036;-74
2022/08/20 08:39:23;;;;;;;2.53;0.90;;;23.50;99.90;;;;;;5062129;28;20397;-73
2022/08/20 08:41:51;;;;;;;2.33;0.93;;;24.20;99.80;;;;;;5054138;28;20147;-73
2022/08/20 08:44:22;;;;;;;2.97;0.85;;;23.80;98.70;;;;;;5047917;28;20121;-72
2022/08/20 08:46:51;;;;;;;2.03;0.85;;;23.50;99.90;;;;;;5062990;28;20032;-72
2022/08/20 08:49:21;;;;;;;5.93;0.98;;;23.40;99.90;;;;;;5060369;28;20128;-73
2022/08/20 08:51:58;;;;;;;3.40;1.02;;;23.20;99.90;;;;;;5057192;28;20036;-72
2022/08/20 08:54:28;;;;;;;3.40;1.60;;;23.10;99.90;;;;;;5058025;28;20036;-73
2022/08/20 08:56:53;;;;;;;2.80;1.20;;;22.90;98.90;;;;;;5063419;28;20040;-73
2022/08/20 08:59:21;;;;;;;3.50;1.00;;;22.90;98.40;;;;;;5057120;28;20037;-73
2022/08/20 09:01:52;;;;;;;2.67;0.80;;;22.90;98.70;;;;;;5064436;28;20374;-73
2022/08/20 09:04:20;;;;;;;2.13;0.90;;;23.10;99.00;;;;;;5048694;28;20116;-73
2022/08/20 09:06:47;;;;;;;3.03;1.00;;;23.00;99.90;;;;;;5050876;28;20036;-73
2022/08/20 09:09:28;;;;;;;2.72;1.00;;;22.80;99.90;;;;;;5045913;28;20118;-72
2022/08/20 09:12:01;;;;;;;2.05;1.00;;;22.60;99.90;;;;;;5050685;28;20028;-73
2022/08/20 09:14:27;;;;;;;1.33;0.73;;;22.60;99.90;;;;;;5048589;28;20027;-72
2022/08/20 09:16:53;;;;;;;2.05;0.82;;;22.70;99.90;;;;;;5055463;28;20033;-72
2022/08/20 09:19:20;;;;;;;3.60;0.68;;;22.80;99.90;;;;;;5059411;28;20044;-72
2022/08/20 09:21:45;;;;;;;2.15;0.95;;;22.90;99.90;;;;;;5062879;28;20029;-73
2022/08/20 09:24:11;;;;;;;1.60;0.88;;;22.70;99.90;;;;;;5060098;28;20620;-72
2022/08/20 09:26:37;;;;;;;1.95;0.75;;;22.70;99.90;;;;;;5061247;28;20039;-72
2022/08/20 09:29:02;;;;;;;1.73;0.85;;;22.80;99.90;;;;;;5055724;28;20501;-71
2022/08/20 09:31:28;;;;;;;1.83;0.93;;;22.90;99.90;;;;;;5044565;28;20094;-72
2022/08/20 09:33:54;;;;;;;2.35;0.75;;;22.80;99.90;;;;;;5044975;28;20107;-72
2022/08/20 09:36:19;;;;;;;2.75;1.20;;;22.90;99.90;;;;;;5043725;28;20034;-73
2022/08/20 09:38:45;;;;;;;2.88;1.35;;;23.20;99.90;;;;;;5049420;28;20025;-72
2022/08/20 09:41:11;;;;;;;1.90;1.00;;;23.30;99.90;;;;;;5060285;28;20078;-73
2022/08/20 09:43:36;;;;;;;3.67;1.10;;;23.50;99.90;;;;;;5048297;28;20050;-72
2022/08/20 09:46:02;;;;;;;2.00;0.98;;;23.60;99.00;;;;;;5061635;28;20040;-72
2022/08/20 09:48:28;;;;;;;4.32;0.88;;;23.60;99.30;;;;;;5057773;28;20569;-72
2022/08/20 09:50:53;;;;;;;4.95;1.10;;;23.70;97.50;;;;;;5055122;28;20857;-72
2022/08/20 09:53:20;;;;;;;2.58;0.70;;;23.90;97.20;;;;;;5053896;28;20121;-72
2022/08/20 09:55:51;;;;;;;3.15;1.00;;;24.50;97.50;;;;;;5060207;28;20036;-72
2022/08/20 09:58:35;;;;;;;4.65;1.20;;;24.90;96.10;;;;;;5055093;28;20466;-72
2022/08/20 10:01:10;;;;;;;2.15;0.95;;;25.50;96.20;;;;;;5052968;28;20066;-72
2022/08/20 10:03:36;;;;;;;1.77;0.90;;;25.90;94.10;;;;;;5063484;28;20028;-72
2022/08/20 10:06:01;;;;;;;1.95;0.90;;;26.00;95.10;;;;;;5058770;28;20029;-72
2022/08/20 10:08:27;;;;;;;2.40;1.10;;;26.20;94.20;;;;;;5053904;28;20397;-72
2022/08/20 10:10:53;;;;;;;3.20;0.88;;;26.10;92.60;;;;;;5063594;28;20040;-72
2022/08/20 10:13:19;;;;;;;3.08;0.73;;;26.20;93.60;;;;;;5056258;28;20036;-72
2022/08/20 10:15:45;;;;;;;1.95;1.00;;;25.90;92.20;;;;;;5055260;28;20036;-72
2022/08/20 10:18:10;;;;;;;2.90;0.85;;;25.80;93.40;;;;;;5062785;28;20031;-72
2022/08/20 10:20:36;;;;;;;1.75;1.05;;;25.80;93.40;;;;;;5041847;28;20452;-72
2022/08/20 10:23:02;;;;;;;1.67;0.80;;;26.10;93.70;;;;;;5064382;28;20033;-72
2022/08/20 10:25:28;;;;;;;1.45;0.80;;;26.40;93.40;;;;;;5061114;28;20128;-72
2022/08/20 10:27:54;;;;;;;2.35;0.98;;;26.30;91.20;;;;;;5062825;28;20104;-72
2022/08/20 10:30:20;;;;;;;2.97;1.00;;;26.60;92.50;;;;;;5056769;28;20044;-72
2022/08/20 10:32:46;;;;;;;2.47;0.75;;;26.40;92.00;;;;;;5064537;28;20033;-72
2022/08/20 10:35:12;;;;;;;1.55;0.90;;;26.70;92.70;;;;;;5066517;28;20078;-72
2022/08/20 10:37:38;;;;;;;3.97;1.00;;;26.50;91.70;;;;;;5064510;28;20028;-72
2022/08/20 10:40:05;;;;;;;1.67;1.02;;;26.70;93.10;;;;;;5066984;28;20689;-72
2022/08/20 10:42:31;;;;;;;2.70;1.10;;;26.80;92.00;;;;;;5052584;28;20040;-71
2022/08/20 10:44:56;;;;;;;1.38;0.80;;;26.50;91.30;;;;;;5061998;28;20020;-73
2022/08/20 10:47:25;;;;;;;6.05;1.35;;;26.50;92.60;;;;;;5046195;28;20120;-72
2022/08/20 10:49:53;;;;;;;2.10;0.90;;;26.60;92.00;;;;;;5053373;28;20117;-72
2022/08/20 10:52:19;;;;;;;2.67;0.98;;;26.60;92.50;;;;;;5062034;28;20074;-73
2022/08/20 10:54:45;;;;;;;2.65;1.05;;;26.70;92.50;;;;;;5068470;28;20064;-72
2022/08/20 10:57:27;;;;;;;2.85;1.10;;;26.60;92.10;;;;;;5063708;28;20382;-73
2022/08/20 10:59:55;;;;;;;1.90;0.93;;;26.70;92.60;;;;;;5057345;28;20029;-75
2022/08/20 11:02:21;;;;;;;1.95;1.02;;;26.60;92.00;;;;;;5062602;28;20044;-73
2022/08/20 11:04:47;;;;;;;6.25;1.13;;;26.70;91.80;;;;;;5058517;28;20012;-73
2022/08/20 11:07:26;;;;;;;8.55;1.15;;;26.80;91.80;;;;;;5059331;28;20369;-74
2022/08/20 11:09:52;;;;;;;3.30;1.10;;;27.00;92.10;;;;;;5056114;28;20036;-75
2022/08/20 11:12:19;;;;;;;4.05;1.13;;;27.10;91.90;;;;;;5050451;28;20087;-75
2022/08/20 11:14:45;;;;;;;2.75;0.73;;;27.50;92.40;;;;;;5056191;28;20029;-74
2022/08/20 11:17:12;;;;;;;2.13;0.95;;;27.70;91.60;;;;;;5065319;28;20111;-74
2022/08/20 11:19:42;;;;;;;1.40;0.90;;;27.80;92.70;;;;;;5057740;28;20036;-74
2022/08/20 11:22:09;;;;;;;2.92;1.20;;;27.60;92.70;;;;;;5064941;28;20028;-74
2022/08/20 11:24:35;;;;;;;1.88;0.80;;;27.60;91.40;;;;;;5066124;28;20127;-75
2022/08/20 11:27:01;;;;;;;1.73;0.90;;;27.40;91.30;;;;;;5062534;28;20036;-75
2022/08/20 11:29:26;;;;;;;2.25;1.20;;;27.50;90.60;;;;;;5062386;28;20139;-74
2022/08/20 11:31:52;;;;;;;3.20;1.15;;;27.80;91.30;;;;;;5066526;28;20578;-74
2022/08/20 11:34:18;;;;;;;2.20;0.90;;;28.00;92.50;;;;;;5068027;28;20024;-74
2022/08/20 11:36:45;;;;;;;4.95;1.50;;;28.10;91.80;;;;;;5065847;28;20032;-74
2022/08/20 11:39:11;;;;;;;2.25;0.95;;;28.20;93.40;;;;;;5067957;28;20075;-74
2022/08/20 11:41:36;;;;;;;2.38;1.00;;;28.00;91.20;;;;;;5064994;28;20817;-74
2022/08/20 11:44:02;;;;;;;1.80;1.02;;;28.10;93.10;;;;;;5055931;28;21088;-74
2022/08/20 11:46:28;;;;;;;3.08;1.40;;;28.30;93.40;;;;;;5067007;28;20587;-75
2022/08/20 11:48:54;;;;;;;2.55;1.13;;;28.30;92.10;;;;;;5065618;28;20032;-74
2022/08/20 11:51:19;;;;;;;2.08;0.82;;;28.30;91.60;;;;;;5064571;28;20079;-75
2022/08/20 11:53:45;;;;;;;2.70;0.88;;;28.00;91.40;;;;;;5064274;28;20028;-75
2022/08/20 11:56:12;;;;;;;2.13;1.00;;;28.30;92.10;;;;;;5064390;28;20059;-75
2022/08/20 11:58:38;;;;;;;3.15;1.00;;;28.20;91.80;;;;;;5065621;28;20032;-74
2022/08/20 12:01:03;;;;;;;4.45;1.58;;;28.40;93.00;;;;;;5056658;28;20027;-75
2022/08/20 12:03:29;;;;;;;2.05;1.10;;;28.20;91.30;;;;;;5053368;28;20028;-74
2022/08/20 12:05:56;;;;;;;4.00;1.20;;;28.20;91.60;;;;;;5063195;28;20029;-74
2022/08/20 12:08:22;;;;;;;1.98;1.00;;;28.30;92.40;;;;;;5048015;28;20116;-74
2022/08/20 12:10:48;;;;;;;2.97;1.30;;;28.60;92.50;;;;;;5051648;28;20104;-75
2022/08/20 12:13:13;;;;;;;3.25;1.50;;;28.30;91.70;;;;;;5057059;28;20041;-74
2022/08/20 12:15:39;;;;;;;2.65;1.20;;;28.50;92.00;;;;;;5060367;28;20040;-75
2022/08/20 12:18:09;;;;;;;2.33;1.10;;;28.40;93.00;;;;;;5052138;28;20029;-75
2022/08/20 12:20:36;;;;;;;1.95;0.85;;;28.30;92.10;;;;;;5052989;28;20051;-76
2022/08/20 12:23:02;;;;;;;1.88;0.88;;;28.60;91.80;;;;;;5051799;28;20036;-75
2022/08/20 12:25:28;;;;;;;3.63;1.08;;;28.80;92.90;;;;;;5050513;28;20037;-75
2022/08/20 12:27:53;;;;;;;2.60;1.30;;;28.70;91.70;;;;;;5062930;28;20553;-75
2022/08/20 12:30:22;;;;;;;3.10;1.05;;;28.70;91.60;;;;;;5066926;28;20686;-75
2022/08/20 12:32:48;;;;;;;1.92;1.17;;;28.80;91.30;;;;;;5065980;28;20036;-75
2022/08/20 12:35:16;;;;;;;3.03;1.20;;;28.80;91.10;;;;;;5059095;28;20040;-75
2022/08/20 12:37:42;;;;;;;2.35;1.10;;;28.80;91.30;;;;;;5059297;28;20053;-75
2022/08/20 12:40:13;;;;;;;2.63;1.23;;;28.20;91.40;;;;;;5030753;28;20443;-75
2022/08/20 12:42:39;;;;;;;2.50;1.20;;;28.10;91.70;;;;;;5065119;28;20413;-75
2022/08/20 12:45:05;;;;;;;2.67;1.23;;;27.90;92.00;;;;;;5055792;28;20021;-75
2022/08/20 12:47:37;;;;;;;1.83;0.95;;;27.90;91.20;;;;;;5056917;28;20075;-75
2022/08/20 12:50:07;;;;;;;1.98;0.98;;;27.80;90.70;;;;;;5073297;28;20036;-75
2022/08/20 12:52:34;;;;;;;3.45;1.30;;;27.90;91.40;;;;;;5056499;28;20127;-75
2022/08/20 12:55:00;;;;;;;1.45;0.90;;;27.80;91.00;;;;;;5053787;28;20477;-75
2022/08/20 12:57:31;;;;;;;3.83;1.35;;;27.70;90.30;;;;;;5060910;28;20544;-75